sensor_id;sensor_type;location;lat;lon;timestamp;P1;durP1;ratioP1;P2;durP2;ratioP2
78610;SDS011;67932;50.474;4.436;2023-06-26T00:00:57;4.97;;;2.95;;
78610;SDS011;67932;50.474;4.436;2023-06-26T00:03:23;4.65;;;2.83;;
78610;SDS011;67932;50.474;4.436;2023-06-26T00:05:49;5.60;;;2.70;;
78610;SDS011;67932;50.474;4.436;2023-06-26T00:08:15;3.17;;;2.50;;
78610;SDS011;67932;50.474;4.436;2023-06-26T00:10:42;5.85;;;2.45;;
78610;SDS011;67932;50.474;4.436;2023-06-26T00:13:08;6.07;;;2.78;;
78610;SDS011;67932;50.474;4.436;2023-06-26T00:15:37;4.47;;;2.80;;
78610;SDS011;67932;50.474;4.436;2023-06-26T00:18:04;5.30;;;2.70;;
78610;SDS011;67932;50.474;4.436;2023-06-26T00:20:30;4.28;;;2.33;;
78610;SDS011;67932;50.474;4.436;2023-06-26T00:22:59;8.07;;;2.97;;
78610;SDS011;67932;50.474;4.436;2023-06-26T00:25:25;4.63;;;2.40;;
78610;SDS011;67932;50.474;4.436;2023-06-26T00:27:51;5.25;;;2.28;;
78610;SDS011;67932;50.474;4.436;2023-06-26T00:30:17;4.75;;;2.30;;
78610;SDS011;67932;50.474;4.436;2023-06-26T00:32:44;4.15;;;2.65;;
78610;SDS011;67932;50.474;4.436;2023-06-26T00:35:10;4.30;;;2.60;;
78610;SDS011;67932;50.474;4.436;2023-06-26T00:37:36;6.57;;;2.47;;
78610;SDS011;67932;50.474;4.436;2023-06-26T00:40:02;5.25;;;3.03;;
78610;SDS011;67932;50.474;4.436;2023-06-26T00:42:30;5.15;;;2.97;;
78610;SDS011;67932;50.474;4.436;2023-06-26T00:44:56;9.48;;;3.63;;
78610;SDS011;67932;50.474;4.436;2023-06-26T00:47:23;7.40;;;3.53;;
78610;SDS011;67932;50.474;4.436;2023-06-26T00:49:50;6.07;;;3.08;;
78610;SDS011;67932;50.474;4.436;2023-06-26T00:52:17;5.10;;;2.83;;
78610;SDS011;67932;50.474;4.436;2023-06-26T00:54:43;4.65;;;2.72;;
78610;SDS011;67932;50.474;4.436;2023-06-26T00:57:10;4.40;;;2.80;;
78610;SDS011;67932;50.474;4.436;2023-06-26T00:59:36;3.88;;;2.42;;
78610;SDS011;67932;50.474;4.436;2023-06-26T01:02:03;6.85;;;2.90;;
78610;SDS011;67932;50.474;4.436;2023-06-26T01:04:29;6.47;;;2.50;;
78610;SDS011;67932;50.474;4.436;2023-06-26T01:06:57;4.63;;;2.53;;
78610;SDS011;67932;50.474;4.436;2023-06-26T01:09:26;5.05;;;2.53;;
78610;SDS011;67932;50.474;4.436;2023-06-26T01:11:52;5.07;;;2.70;;
78610;SDS011;67932;50.474;4.436;2023-06-26T01:14:19;5.00;;;2.50;;
78610;SDS011;67932;50.474;4.436;2023-06-26T01:16:45;4.72;;;2.50;;
78610;SDS011;67932;50.474;4.436;2023-06-26T01:19:18;5.38;;;2.72;;
78610;SDS011;67932;50.474;4.436;2023-06-26T01:21:51;7.15;;;2.60;;
78610;SDS011;67932;50.474;4.436;2023-06-26T01:24:32;4.80;;;2.33;;
78610;SDS011;67932;50.474;4.436;2023-06-26T01:27:02;4.50;;;2.38;;
78610;SDS011;67932;50.474;4.436;2023-06-26T01:29:30;6.18;;;2.80;;
78610;SDS011;67932;50.474;4.436;2023-06-26T01:31:58;4.40;;;2.50;;
78610;SDS011;67932;50.474;4.436;2023-06-26T01:34:25;6.65;;;3.00;;
78610;SDS011;67932;50.474;4.436;2023-06-26T01:36:52;5.65;;;2.50;;
78610;SDS011;67932;50.474;4.436;2023-06-26T01:39:19;7.85;;;2.67;;
78610;SDS011;67932;50.474;4.436;2023-06-26T01:41:45;3.95;;;2.40;;
78610;SDS011;67932;50.474;4.436;2023-06-26T01:44:17;5.07;;;2.60;;
78610;SDS011;67932;50.474;4.436;2023-06-26T01:52:18;4.53;;;2.67;;
78610;SDS011;67932;50.474;4.436;2023-06-26T01:54:49;6.10;;;2.95;;
78610;SDS011;67932;50.474;4.436;2023-06-26T01:57:30;4.43;;;2.58;;
78610;SDS011;67932;50.474;4.436;2023-06-26T01:59:57;8.07;;;2.90;;
78610;SDS011;67932;50.474;4.436;2023-06-26T02:02:24;5.07;;;2.85;;
78610;SDS011;67932;50.474;4.436;2023-06-26T02:04:51;4.85;;;2.55;;
78610;SDS011;67932;50.474;4.436;2023-06-26T02:07:17;5.20;;;3.33;;
78610;SDS011;67932;50.474;4.436;2023-06-26T02:09:43;4.95;;;3.00;;
78610;SDS011;67932;50.474;4.436;2023-06-26T02:12:10;5.90;;;3.15;;
78610;SDS011;67932;50.474;4.436;2023-06-26T02:14:36;5.45;;;2.78;;
78610;SDS011;67932;50.474;4.436;2023-06-26T02:17:02;5.47;;;2.78;;
78610;SDS011;67932;50.474;4.436;2023-06-26T02:19:29;5.82;;;2.80;;
78610;SDS011;67932;50.474;4.436;2023-06-26T02:21:55;7.07;;;3.00;;
78610;SDS011;67932;50.474;4.436;2023-06-26T02:24:21;7.05;;;3.33;;
78610;SDS011;67932;50.474;4.436;2023-06-26T02:26:48;4.45;;;3.40;;
78610;SDS011;67932;50.474;4.436;2023-06-26T02:29:14;6.25;;;2.90;;
78610;SDS011;67932;50.474;4.436;2023-06-26T02:31:41;4.13;;;2.70;;
78610;SDS011;67932;50.474;4.436;2023-06-26T02:34:07;7.18;;;2.72;;
78610;SDS011;67932;50.474;4.436;2023-06-26T02:36:33;8.02;;;3.33;;
78610;SDS011;67932;50.474;4.436;2023-06-26T02:39:00;8.35;;;2.95;;
78610;SDS011;67932;50.474;4.436;2023-06-26T02:41:26;9.23;;;2.97;;
78610;SDS011;67932;50.474;4.436;2023-06-26T02:43:52;5.72;;;3.10;;
78610;SDS011;67932;50.474;4.436;2023-06-26T02:46:18;11.32;;;4.22;;
78610;SDS011;67932;50.474;4.436;2023-06-26T02:48:44;6.30;;;3.35;;
78610;SDS011;67932;50.474;4.436;2023-06-26T02:51:11;7.28;;;3.25;;
78610;SDS011;67932;50.474;4.436;2023-06-26T02:53:37;8.35;;;3.30;;
78610;SDS011;67932;50.474;4.436;2023-06-26T02:56:03;8.07;;;2.92;;
78610;SDS011;67932;50.474;4.436;2023-06-26T02:58:30;7.30;;;2.97;;
78610;SDS011;67932;50.474;4.436;2023-06-26T03:00:56;7.40;;;2.85;;
78610;SDS011;67932;50.474;4.436;2023-06-26T03:03:22;8.07;;;2.83;;
78610;SDS011;67932;50.474;4.436;2023-06-26T03:05:48;5.70;;;3.05;;
78610;SDS011;67932;50.474;4.436;2023-06-26T03:08:14;6.30;;;2.65;;
78610;SDS011;67932;50.474;4.436;2023-06-26T03:10:41;7.88;;;2.88;;
78610;SDS011;67932;50.474;4.436;2023-06-26T03:13:07;11.80;;;3.38;;
78610;SDS011;67932;50.474;4.436;2023-06-26T03:15:34;7.93;;;3.47;;
78610;SDS011;67932;50.474;4.436;2023-06-26T03:18:00;7.43;;;2.88;;
78610;SDS011;67932;50.474;4.436;2023-06-26T03:20:27;8.02;;;2.88;;
78610;SDS011;67932;50.474;4.436;2023-06-26T03:22:53;7.75;;;2.95;;
78610;SDS011;67932;50.474;4.436;2023-06-26T03:25:19;7.05;;;3.03;;
78610;SDS011;67932;50.474;4.436;2023-06-26T03:27:46;5.45;;;2.75;;
78610;SDS011;67932;50.474;4.436;2023-06-26T03:30:12;8.82;;;3.58;;
78610;SDS011;67932;50.474;4.436;2023-06-26T03:32:39;7.18;;;2.67;;
78610;SDS011;67932;50.474;4.436;2023-06-26T03:35:06;10.20;;;3.20;;
78610;SDS011;67932;50.474;4.436;2023-06-26T03:37:32;8.35;;;3.88;;
78610;SDS011;67932;50.474;4.436;2023-06-26T03:39:58;10.85;;;2.83;;
78610;SDS011;67932;50.474;4.436;2023-06-26T03:42:25;9.10;;;3.25;;
78610;SDS011;67932;50.474;4.436;2023-06-26T03:44:51;6.75;;;3.28;;
78610;SDS011;67932;50.474;4.436;2023-06-26T03:47:17;6.85;;;2.90;;
78610;SDS011;67932;50.474;4.436;2023-06-26T03:49:43;7.07;;;2.97;;
78610;SDS011;67932;50.474;4.436;2023-06-26T03:52:10;9.88;;;3.70;;
78610;SDS011;67932;50.474;4.436;2023-06-26T03:54:36;7.82;;;2.75;;
78610;SDS011;67932;50.474;4.436;2023-06-26T03:57:02;8.93;;;3.05;;
78610;SDS011;67932;50.474;4.436;2023-06-26T03:59:28;7.35;;;3.40;;
78610;SDS011;67932;50.474;4.436;2023-06-26T04:01:55;8.48;;;2.72;;
78610;SDS011;67932;50.474;4.436;2023-06-26T04:04:21;9.25;;;4.10;;
78610;SDS011;67932;50.474;4.436;2023-06-26T04:06:47;7.20;;;2.80;;
78610;SDS011;67932;50.474;4.436;2023-06-26T04:09:14;7.38;;;3.00;;
78610;SDS011;67932;50.474;4.436;2023-06-26T04:11:40;10.63;;;3.15;;
78610;SDS011;67932;50.474;4.436;2023-06-26T04:14:06;14.02;;;4.03;;
78610;SDS011;67932;50.474;4.436;2023-06-26T04:16:32;7.22;;;3.05;;
78610;SDS011;67932;50.474;4.436;2023-06-26T04:18:59;9.00;;;3.35;;
78610;SDS011;67932;50.474;4.436;2023-06-26T04:21:27;8.80;;;3.05;;
78610;SDS011;67932;50.474;4.436;2023-06-26T04:23:53;7.65;;;2.88;;
78610;SDS011;67932;50.474;4.436;2023-06-26T04:26:20;9.23;;;3.05;;
78610;SDS011;67932;50.474;4.436;2023-06-26T04:28:46;9.95;;;3.00;;
78610;SDS011;67932;50.474;4.436;2023-06-26T04:31:13;10.80;;;3.25;;
78610;SDS011;67932;50.474;4.436;2023-06-26T04:33:39;8.57;;;3.17;;
78610;SDS011;67932;50.474;4.436;2023-06-26T04:36:06;7.03;;;2.97;;
78610;SDS011;67932;50.474;4.436;2023-06-26T04:38:32;11.18;;;3.33;;
78610;SDS011;67932;50.474;4.436;2023-06-26T04:40:59;9.10;;;3.10;;
78610;SDS011;67932;50.474;4.436;2023-06-26T04:43:26;8.95;;;3.25;;
78610;SDS011;67932;50.474;4.436;2023-06-26T04:45:53;12.85;;;3.30;;
78610;SDS011;67932;50.474;4.436;2023-06-26T04:48:19;7.75;;;3.28;;
78610;SDS011;67932;50.474;4.436;2023-06-26T04:50:46;7.68;;;2.95;;
78610;SDS011;67932;50.474;4.436;2023-06-26T04:53:18;9.05;;;3.10;;
78610;SDS011;67932;50.474;4.436;2023-06-26T04:55:46;8.18;;;3.95;;
78610;SDS011;67932;50.474;4.436;2023-06-26T04:58:12;12.05;;;3.20;;
78610;SDS011;67932;50.474;4.436;2023-06-26T05:00:38;9.38;;;3.78;;
78610;SDS011;67932;50.474;4.436;2023-06-26T05:03:07;11.68;;;3.60;;
78610;SDS011;67932;50.474;4.436;2023-06-26T05:05:36;7.90;;;2.80;;
78610;SDS011;67932;50.474;4.436;2023-06-26T05:10:42;9.73;;;3.80;;
78610;SDS011;67932;50.474;4.436;2023-06-26T05:13:09;7.95;;;3.10;;
78610;SDS011;67932;50.474;4.436;2023-06-26T05:15:35;9.82;;;3.35;;
78610;SDS011;67932;50.474;4.436;2023-06-26T05:18:02;9.13;;;3.17;;
78610;SDS011;67932;50.474;4.436;2023-06-26T05:20:30;8.65;;;2.83;;
78610;SDS011;67932;50.474;4.436;2023-06-26T05:22:56;9.02;;;2.90;;
78610;SDS011;67932;50.474;4.436;2023-06-26T05:25:23;12.52;;;2.83;;
78610;SDS011;67932;50.474;4.436;2023-06-26T05:27:52;10.00;;;3.30;;
78610;SDS011;67932;50.474;4.436;2023-06-26T05:30:18;7.95;;;3.10;;
78610;SDS011;67932;50.474;4.436;2023-06-26T05:32:45;20.15;;;5.78;;
78610;SDS011;67932;50.474;4.436;2023-06-26T05:35:13;11.02;;;4.00;;
78610;SDS011;67932;50.474;4.436;2023-06-26T05:37:41;9.05;;;3.28;;
78610;SDS011;67932;50.474;4.436;2023-06-26T05:40:10;9.23;;;3.63;;
78610;SDS011;67932;50.474;4.436;2023-06-26T05:42:38;8.23;;;2.47;;
78610;SDS011;67932;50.474;4.436;2023-06-26T05:45:31;9.75;;;2.70;;
78610;SDS011;67932;50.474;4.436;2023-06-26T05:47:58;9.25;;;2.60;;
78610;SDS011;67932;50.474;4.436;2023-06-26T05:50:26;7.72;;;3.05;;
78610;SDS011;67932;50.474;4.436;2023-06-26T05:52:53;14.85;;;3.10;;
78610;SDS011;67932;50.474;4.436;2023-06-26T05:55:24;13.77;;;2.92;;
78610;SDS011;67932;50.474;4.436;2023-06-26T05:57:51;7.57;;;2.58;;
78610;SDS011;67932;50.474;4.436;2023-06-26T06:00:18;8.25;;;2.55;;
78610;SDS011;67932;50.474;4.436;2023-06-26T06:02:46;9.98;;;2.75;;
78610;SDS011;67932;50.474;4.436;2023-06-26T06:05:14;5.75;;;2.17;;
78610;SDS011;67932;50.474;4.436;2023-06-26T06:07:40;8.93;;;2.22;;
78610;SDS011;67932;50.474;4.436;2023-06-26T06:10:06;5.57;;;2.30;;
78610;SDS011;67932;50.474;4.436;2023-06-26T06:12:33;7.07;;;2.05;;
78610;SDS011;67932;50.474;4.436;2023-06-26T06:15:04;9.98;;;2.83;;
78610;SDS011;67932;50.474;4.436;2023-06-26T06:17:31;9.52;;;2.47;;
78610;SDS011;67932;50.474;4.436;2023-06-26T06:19:57;10.10;;;2.05;;
78610;SDS011;67932;50.474;4.436;2023-06-26T06:22:24;4.53;;;1.75;;
78610;SDS011;67932;50.474;4.436;2023-06-26T06:24:50;7.47;;;1.73;;
78610;SDS011;67932;50.474;4.436;2023-06-26T06:27:17;8.90;;;2.03;;
78610;SDS011;67932;50.474;4.436;2023-06-26T06:29:43;8.73;;;2.08;;
78610;SDS011;67932;50.474;4.436;2023-06-26T06:32:09;8.20;;;2.00;;
78610;SDS011;67932;50.474;4.436;2023-06-26T06:34:36;7.18;;;1.80;;
78610;SDS011;67932;50.474;4.436;2023-06-26T06:37:02;7.43;;;1.98;;
78610;SDS011;67932;50.474;4.436;2023-06-26T06:39:29;7.25;;;1.63;;
78610;SDS011;67932;50.474;4.436;2023-06-26T06:41:55;10.57;;;1.88;;
78610;SDS011;67932;50.474;4.436;2023-06-26T06:44:22;4.07;;;1.55;;
78610;SDS011;67932;50.474;4.436;2023-06-26T06:46:48;5.93;;;1.70;;
78610;SDS011;67932;50.474;4.436;2023-06-26T06:49:14;4.25;;;1.38;;
78610;SDS011;67932;50.474;4.436;2023-06-26T06:51:41;4.85;;;1.77;;
78610;SDS011;67932;50.474;4.436;2023-06-26T06:54:07;4.10;;;1.95;;
78610;SDS011;67932;50.474;4.436;2023-06-26T06:56:33;6.18;;;2.58;;
78610;SDS011;67932;50.474;4.436;2023-06-26T06:59:00;4.40;;;1.60;;
78610;SDS011;67932;50.474;4.436;2023-06-26T07:01:26;3.55;;;1.23;;
78610;SDS011;67932;50.474;4.436;2023-06-26T07:03:52;8.15;;;1.90;;
78610;SDS011;67932;50.474;4.436;2023-06-26T07:06:18;4.55;;;1.50;;
78610;SDS011;67932;50.474;4.436;2023-06-26T07:08:44;5.07;;;2.10;;
78610;SDS011;67932;50.474;4.436;2023-06-26T07:11:11;5.50;;;1.65;;
78610;SDS011;67932;50.474;4.436;2023-06-26T07:13:37;4.57;;;1.45;;
78610;SDS011;67932;50.474;4.436;2023-06-26T07:16:03;8.32;;;1.40;;
78610;SDS011;67932;50.474;4.436;2023-06-26T07:18:30;6.20;;;1.50;;
78610;SDS011;67932;50.474;4.436;2023-06-26T07:20:56;6.03;;;1.38;;
78610;SDS011;67932;50.474;4.436;2023-06-26T07:23:25;4.82;;;1.40;;
78610;SDS011;67932;50.474;4.436;2023-06-26T07:25:52;6.40;;;1.45;;
78610;SDS011;67932;50.474;4.436;2023-06-26T07:28:18;2.80;;;1.15;;
78610;SDS011;67932;50.474;4.436;2023-06-26T07:30:44;6.15;;;2.00;;
78610;SDS011;67932;50.474;4.436;2023-06-26T07:33:10;8.57;;;1.40;;
78610;SDS011;67932;50.474;4.436;2023-06-26T07:35:37;7.13;;;1.30;;
78610;SDS011;67932;50.474;4.436;2023-06-26T07:38:04;2.65;;;1.48;;
78610;SDS011;67932;50.474;4.436;2023-06-26T07:40:30;5.55;;;1.40;;
78610;SDS011;67932;50.474;4.436;2023-06-26T07:42:56;5.03;;;1.40;;
78610;SDS011;67932;50.474;4.436;2023-06-26T07:45:23;5.10;;;1.52;;
78610;SDS011;67932;50.474;4.436;2023-06-26T07:47:50;5.63;;;1.35;;
78610;SDS011;67932;50.474;4.436;2023-06-26T07:50:16;4.97;;;1.23;;
78610;SDS011;67932;50.474;4.436;2023-06-26T07:52:46;5.45;;;1.50;;
78610;SDS011;67932;50.474;4.436;2023-06-26T07:55:13;6.22;;;1.60;;
78610;SDS011;67932;50.474;4.436;2023-06-26T07:57:39;3.70;;;0.98;;
78610;SDS011;67932;50.474;4.436;2023-06-26T08:00:06;8.73;;;1.23;;
78610;SDS011;67932;50.474;4.436;2023-06-26T08:02:33;6.25;;;1.65;;
78610;SDS011;67932;50.474;4.436;2023-06-26T08:04:59;5.07;;;1.35;;
78610;SDS011;67932;50.474;4.436;2023-06-26T08:07:28;3.88;;;1.52;;
78610;SDS011;67932;50.474;4.436;2023-06-26T08:12:24;6.47;;;1.23;;
78610;SDS011;67932;50.474;4.436;2023-06-26T08:14:51;2.90;;;1.20;;
78610;SDS011;67932;50.474;4.436;2023-06-26T08:17:17;3.03;;;0.95;;
78610;SDS011;67932;50.474;4.436;2023-06-26T08:19:43;3.90;;;0.98;;
78610;SDS011;67932;50.474;4.436;2023-06-26T08:22:09;5.22;;;1.08;;
78610;SDS011;67932;50.474;4.436;2023-06-26T08:24:35;6.63;;;1.30;;
78610;SDS011;67932;50.474;4.436;2023-06-26T08:27:02;2.90;;;1.10;;
78610;SDS011;67932;50.474;4.436;2023-06-26T08:29:28;2.70;;;0.90;;
78610;SDS011;67932;50.474;4.436;2023-06-26T08:31:55;5.55;;;1.27;;
78610;SDS011;67932;50.474;4.436;2023-06-26T08:34:21;2.17;;;0.85;;
78610;SDS011;67932;50.474;4.436;2023-06-26T08:36:47;2.67;;;1.10;;
78610;SDS011;67932;50.474;4.436;2023-06-26T08:39:13;4.78;;;2.05;;
78610;SDS011;67932;50.474;4.436;2023-06-26T08:41:40;5.88;;;1.58;;
78610;SDS011;67932;50.474;4.436;2023-06-26T08:44:07;3.25;;;0.98;;
78610;SDS011;67932;50.474;4.436;2023-06-26T08:46:33;3.65;;;1.10;;
78610;SDS011;67932;50.474;4.436;2023-06-26T08:49:14;4.43;;;1.23;;
78610;SDS011;67932;50.474;4.436;2023-06-26T08:51:45;3.00;;;1.00;;
78610;SDS011;67932;50.474;4.436;2023-06-26T08:54:22;5.07;;;1.58;;
78610;SDS011;67932;50.474;4.436;2023-06-26T08:56:53;4.32;;;1.52;;
78610;SDS011;67932;50.474;4.436;2023-06-26T08:59:21;4.07;;;1.10;;
78610;SDS011;67932;50.474;4.436;2023-06-26T09:01:49;2.67;;;1.20;;
78610;SDS011;67932;50.474;4.436;2023-06-26T09:04:16;5.00;;;1.02;;
78610;SDS011;67932;50.474;4.436;2023-06-26T09:10:09;2.05;;;0.80;;
78610;SDS011;67932;50.474;4.436;2023-06-26T09:12:36;6.07;;;1.08;;
78610;SDS011;67932;50.474;4.436;2023-06-26T09:15:03;2.33;;;1.05;;
78610;SDS011;67932;50.474;4.436;2023-06-26T09:17:33;1.27;;;0.80;;
78610;SDS011;67932;50.474;4.436;2023-06-26T09:20:07;5.00;;;0.98;;
78610;SDS011;67932;50.474;4.436;2023-06-26T09:22:38;2.20;;;0.90;;
78610;SDS011;67932;50.474;4.436;2023-06-26T09:25:05;3.55;;;0.82;;
78610;SDS011;67932;50.474;4.436;2023-06-26T09:27:32;2.75;;;1.00;;
78610;SDS011;67932;50.474;4.436;2023-06-26T09:30:00;3.58;;;0.80;;
78610;SDS011;67932;50.474;4.436;2023-06-26T09:32:34;2.55;;;0.80;;
78610;SDS011;67932;50.474;4.436;2023-06-26T09:35:05;3.80;;;0.80;;
78610;SDS011;67932;50.474;4.436;2023-06-26T09:37:32;5.03;;;1.02;;
78610;SDS011;67932;50.474;4.436;2023-06-26T09:40:11;1.83;;;0.88;;
78610;SDS011;67932;50.474;4.436;2023-06-26T09:43:07;3.10;;;1.10;;
78610;SDS011;67932;50.474;4.436;2023-06-26T09:45:42;3.63;;;1.15;;
78610;SDS011;67932;50.474;4.436;2023-06-26T09:48:13;2.10;;;0.70;;
78610;SDS011;67932;50.474;4.436;2023-06-26T09:50:41;4.07;;;1.50;;
78610;SDS011;67932;50.474;4.436;2023-06-26T10:00:02;3.15;;;1.40;;
78610;SDS011;67932;50.474;4.436;2023-06-26T10:02:30;2.72;;;1.10;;
78610;SDS011;67932;50.474;4.436;2023-06-26T10:04:56;4.30;;;1.30;;
78610;SDS011;67932;50.474;4.436;2023-06-26T10:07:24;7.68;;;1.60;;
78610;SDS011;67932;50.474;4.436;2023-06-26T10:09:51;3.03;;;1.10;;
78610;SDS011;67932;50.474;4.436;2023-06-26T10:12:24;1.63;;;1.13;;
78610;SDS011;67932;50.474;4.436;2023-06-26T10:14:59;4.32;;;1.70;;
78610;SDS011;67932;50.474;4.436;2023-06-26T10:17:30;5.95;;;1.50;;
78610;SDS011;67932;50.474;4.436;2023-06-26T10:20:01;2.10;;;1.00;;
78610;SDS011;67932;50.474;4.436;2023-06-26T10:22:29;3.88;;;0.95;;
78610;SDS011;67932;50.474;4.436;2023-06-26T10:25:01;4.57;;;1.20;;
78610;SDS011;67932;50.474;4.436;2023-06-26T10:27:33;2.55;;;1.10;;
78610;SDS011;67932;50.474;4.436;2023-06-26T10:43:13;3.30;;;1.00;;
78610;SDS011;67932;50.474;4.436;2023-06-26T10:45:44;3.75;;;1.20;;
78610;SDS011;67932;50.474;4.436;2023-06-26T10:48:14;2.30;;;1.00;;
78610;SDS011;67932;50.474;4.436;2023-06-26T10:50:41;2.63;;;0.90;;
78610;SDS011;67932;50.474;4.436;2023-06-26T10:53:13;3.53;;;1.20;;
78610;SDS011;67932;50.474;4.436;2023-06-26T10:55:48;3.30;;;0.95;;
78610;SDS011;67932;50.474;4.436;2023-06-26T11:03:38;4.32;;;1.48;;
78610;SDS011;67932;50.474;4.436;2023-06-26T11:06:08;3.55;;;1.02;;
78610;SDS011;67932;50.474;4.436;2023-06-26T11:08:45;2.58;;;1.23;;
78610;SDS011;67932;50.474;4.436;2023-06-26T11:14:20;3.75;;;1.65;;
78610;SDS011;67932;50.474;4.436;2023-06-26T11:16:47;2.90;;;1.30;;
78610;SDS011;67932;50.474;4.436;2023-06-26T11:19:14;3.60;;;1.20;;
78610;SDS011;67932;50.474;4.436;2023-06-26T11:21:44;7.63;;;2.15;;
78610;SDS011;67932;50.474;4.436;2023-06-26T11:24:11;1.75;;;1.02;;
78610;SDS011;67932;50.474;4.436;2023-06-26T11:26:41;3.42;;;1.15;;
78610;SDS011;67932;50.474;4.436;2023-06-26T11:29:10;4.68;;;1.27;;
78610;SDS011;67932;50.474;4.436;2023-06-26T11:31:38;2.33;;;0.88;;
78610;SDS011;67932;50.474;4.436;2023-06-26T11:34:06;4.70;;;1.27;;
78610;SDS011;67932;50.474;4.436;2023-06-26T11:36:38;4.53;;;1.13;;
78610;SDS011;67932;50.474;4.436;2023-06-26T11:39:07;3.00;;;1.00;;
78610;SDS011;67932;50.474;4.436;2023-06-26T11:41:34;5.25;;;1.02;;
78610;SDS011;67932;50.474;4.436;2023-06-26T11:44:03;4.07;;;1.55;;
78610;SDS011;67932;50.474;4.436;2023-06-26T11:46:31;5.55;;;1.23;;
78610;SDS011;67932;50.474;4.436;2023-06-26T11:48:59;3.10;;;1.08;;
78610;SDS011;67932;50.474;4.436;2023-06-26T11:51:29;3.88;;;1.02;;
78610;SDS011;67932;50.474;4.436;2023-06-26T11:53:55;2.05;;;1.05;;
78610;SDS011;67932;50.474;4.436;2023-06-26T11:56:22;3.78;;;1.30;;
78610;SDS011;67932;50.474;4.436;2023-06-26T11:59:05;3.33;;;1.30;;
78610;SDS011;67932;50.474;4.436;2023-06-26T12:01:40;2.92;;;1.30;;
78610;SDS011;67932;50.474;4.436;2023-06-26T12:04:12;1.77;;;0.90;;
78610;SDS011;67932;50.474;4.436;2023-06-26T12:06:41;2.33;;;0.90;;
78610;SDS011;67932;50.474;4.436;2023-06-26T12:09:11;3.35;;;1.10;;
78610;SDS011;67932;50.474;4.436;2023-06-26T12:11:39;2.60;;;0.93;;
78610;SDS011;67932;50.474;4.436;2023-06-26T12:14:08;2.47;;;1.10;;
78610;SDS011;67932;50.474;4.436;2023-06-26T12:16:35;2.50;;;0.80;;
78610;SDS011;67932;50.474;4.436;2023-06-26T12:19:04;2.00;;;1.00;;
78610;SDS011;67932;50.474;4.436;2023-06-26T12:24:15;3.35;;;0.85;;
78610;SDS011;67932;50.474;4.436;2023-06-26T12:26:44;3.38;;;1.02;;
78610;SDS011;67932;50.474;4.436;2023-06-26T12:29:13;3.92;;;1.13;;
78610;SDS011;67932;50.474;4.436;2023-06-26T12:31:44;2.05;;;0.90;;
78610;SDS011;67932;50.474;4.436;2023-06-26T12:34:14;3.53;;;1.17;;
78610;SDS011;67932;50.474;4.436;2023-06-26T12:36:45;2.30;;;1.20;;
78610;SDS011;67932;50.474;4.436;2023-06-26T12:39:15;3.03;;;1.10;;
78610;SDS011;67932;50.474;4.436;2023-06-26T12:41:51;2.95;;;1.00;;
78610;SDS011;67932;50.474;4.436;2023-06-26T12:44:26;2.55;;;1.10;;
78610;SDS011;67932;50.474;4.436;2023-06-26T12:46:56;4.25;;;1.00;;
78610;SDS011;67932;50.474;4.436;2023-06-26T12:49:29;3.38;;;1.10;;
78610;SDS011;67932;50.474;4.436;2023-06-26T12:52:00;2.30;;;1.00;;
78610;SDS011;67932;50.474;4.436;2023-06-26T12:54:27;3.38;;;1.13;;
78610;SDS011;67932;50.474;4.436;2023-06-26T12:56:54;3.22;;;1.10;;
78610;SDS011;67932;50.474;4.436;2023-06-26T12:59:21;3.17;;;1.05;;
78610;SDS011;67932;50.474;4.436;2023-06-26T13:01:47;2.38;;;1.15;;
78610;SDS011;67932;50.474;4.436;2023-06-26T13:04:14;2.83;;;1.00;;
78610;SDS011;67932;50.474;4.436;2023-06-26T13:06:40;2.20;;;1.00;;
78610;SDS011;67932;50.474;4.436;2023-06-26T13:09:07;2.83;;;0.90;;
78610;SDS011;67932;50.474;4.436;2023-06-26T13:11:33;2.72;;;1.10;;
78610;SDS011;67932;50.474;4.436;2023-06-26T13:14:01;3.95;;;1.17;;
78610;SDS011;67932;50.474;4.436;2023-06-26T13:16:28;4.18;;;1.40;;
78610;SDS011;67932;50.474;4.436;2023-06-26T13:18:54;2.75;;;1.40;;
78610;SDS011;67932;50.474;4.436;2023-06-26T13:21:23;3.45;;;1.10;;
78610;SDS011;67932;50.474;4.436;2023-06-26T13:23:49;2.20;;;1.30;;
78610;SDS011;67932;50.474;4.436;2023-06-26T13:26:15;3.10;;;1.10;;
78610;SDS011;67932;50.474;4.436;2023-06-26T13:28:42;2.50;;;1.27;;
78610;SDS011;67932;50.474;4.436;2023-06-26T13:31:08;3.28;;;0.90;;
78610;SDS011;67932;50.474;4.436;2023-06-26T13:33:34;1.98;;;1.00;;
78610;SDS011;67932;50.474;4.436;2023-06-26T13:36:00;5.30;;;1.50;;
78610;SDS011;67932;50.474;4.436;2023-06-26T13:38:29;3.53;;;1.10;;
78610;SDS011;67932;50.474;4.436;2023-06-26T13:40:58;2.40;;;0.80;;
78610;SDS011;67932;50.474;4.436;2023-06-26T13:43:25;4.10;;;1.13;;
78610;SDS011;67932;50.474;4.436;2023-06-26T13:45:53;3.92;;;1.17;;
78610;SDS011;67932;50.474;4.436;2023-06-26T13:48:20;3.08;;;1.30;;
78610;SDS011;67932;50.474;4.436;2023-06-26T13:50:47;2.92;;;1.33;;
78610;SDS011;67932;50.474;4.436;2023-06-26T13:53:13;6.40;;;1.50;;
78610;SDS011;67932;50.474;4.436;2023-06-26T13:55:40;2.65;;;0.80;;
78610;SDS011;67932;50.474;4.436;2023-06-26T13:58:07;1.58;;;0.85;;
78610;SDS011;67932;50.474;4.436;2023-06-26T14:00:34;3.42;;;0.95;;
78610;SDS011;67932;50.474;4.436;2023-06-26T14:03:02;4.25;;;1.13;;
78610;SDS011;67932;50.474;4.436;2023-06-26T14:05:29;4.55;;;0.93;;
78610;SDS011;67932;50.474;4.436;2023-06-26T14:07:57;4.10;;;1.20;;
78610;SDS011;67932;50.474;4.436;2023-06-26T14:10:23;1.65;;;0.90;;
78610;SDS011;67932;50.474;4.436;2023-06-26T14:12:50;2.65;;;1.02;;
78610;SDS011;67932;50.474;4.436;2023-06-26T14:15:16;1.50;;;0.65;;
78610;SDS011;67932;50.474;4.436;2023-06-26T14:17:44;3.20;;;1.00;;
78610;SDS011;67932;50.474;4.436;2023-06-26T14:20:10;3.47;;;1.10;;
78610;SDS011;67932;50.474;4.436;2023-06-26T14:22:40;4.57;;;1.75;;
78610;SDS011;67932;50.474;4.436;2023-06-26T14:25:07;3.38;;;0.93;;
78610;SDS011;67932;50.474;4.436;2023-06-26T14:27:34;2.00;;;0.93;;
78610;SDS011;67932;50.474;4.436;2023-06-26T14:30:02;1.58;;;1.13;;
78610;SDS011;67932;50.474;4.436;2023-06-26T14:32:29;1.80;;;0.95;;
78610;SDS011;67932;50.474;4.436;2023-06-26T14:34:56;2.38;;;1.23;;
78610;SDS011;67932;50.474;4.436;2023-06-26T14:37:23;4.05;;;0.80;;
78610;SDS011;67932;50.474;4.436;2023-06-26T14:39:50;3.25;;;1.00;;
78610;SDS011;67932;50.474;4.436;2023-06-26T14:42:17;2.20;;;1.08;;
78610;SDS011;67932;50.474;4.436;2023-06-26T14:44:43;5.72;;;1.27;;
78610;SDS011;67932;50.474;4.436;2023-06-26T14:47:12;2.65;;;1.10;;
78610;SDS011;67932;50.474;4.436;2023-06-26T14:49:39;3.08;;;1.05;;
78610;SDS011;67932;50.474;4.436;2023-06-26T14:52:06;3.42;;;0.80;;
78610;SDS011;67932;50.474;4.436;2023-06-26T14:54:32;3.40;;;1.10;;
78610;SDS011;67932;50.474;4.436;2023-06-26T14:57:01;1.98;;;0.90;;
78610;SDS011;67932;50.474;4.436;2023-06-26T14:59:31;3.03;;;1.13;;
78610;SDS011;67932;50.474;4.436;2023-06-26T15:01:57;8.10;;;1.38;;
78610;SDS011;67932;50.474;4.436;2023-06-26T15:04:24;5.70;;;1.10;;
78610;SDS011;67932;50.474;4.436;2023-06-26T15:06:50;4.43;;;1.42;;
78610;SDS011;67932;50.474;4.436;2023-06-26T15:09:17;3.53;;;0.88;;
78610;SDS011;67932;50.474;4.436;2023-06-26T15:11:43;3.05;;;1.00;;
78610;SDS011;67932;50.474;4.436;2023-06-26T15:14:10;1.10;;;1.00;;
78610;SDS011;67932;50.474;4.436;2023-06-26T15:16:36;1.77;;;0.68;;
78610;SDS011;67932;50.474;4.436;2023-06-26T15:19:02;4.07;;;0.93;;
78610;SDS011;67932;50.474;4.436;2023-06-26T15:21:28;3.85;;;0.90;;
78610;SDS011;67932;50.474;4.436;2023-06-26T15:23:55;2.28;;;1.02;;
78610;SDS011;67932;50.474;4.436;2023-06-26T15:26:21;3.17;;;1.20;;
78610;SDS011;67932;50.474;4.436;2023-06-26T15:28:47;4.45;;;1.05;;
78610;SDS011;67932;50.474;4.436;2023-06-26T15:31:16;3.60;;;0.80;;
78610;SDS011;67932;50.474;4.436;2023-06-26T15:33:43;2.70;;;0.88;;
78610;SDS011;67932;50.474;4.436;2023-06-26T15:36:10;4.00;;;1.10;;